createdAt,value
2023-09-23T00:01:41.456Z,80.39
2023-09-23T00:04:09.539Z,80.65
2023-09-23T00:06:38.277Z,80.58
2023-09-23T00:09:09.216Z,80.83
2023-09-23T00:11:38.440Z,79.97
2023-09-23T00:14:06.987Z,79.78
2023-09-23T00:16:36.517Z,79.94
2023-09-23T00:19:05.060Z,79.11
2023-09-23T00:21:33.198Z,79.08
2023-09-23T00:24:03.082Z,79.43
2023-09-23T00:26:31.017Z,78.79
2023-09-23T00:28:58.990Z,78.65
2023-09-23T00:31:27.306Z,78.56
2023-09-23T00:33:56.616Z,78.38
2023-09-23T00:36:25.802Z,78.06
2023-09-23T00:38:53.904Z,77.34
2023-09-23T00:41:21.945Z,77.20
2023-09-23T00:43:51.737Z,76.89
2023-09-23T00:46:24.113Z,76.67
2023-09-23T00:48:52.586Z,77.71
2023-09-23T00:51:22.648Z,78.55
2023-09-23T00:53:51.856Z,78.46
2023-09-23T00:56:24.547Z,77.94
2023-09-23T00:58:53.125Z,79.07
2023-09-23T01:01:22.285Z,80.77
2023-09-23T01:03:51.157Z,82.30
2023-09-23T01:06:20.338Z,83.57
2023-09-23T01:08:51.646Z,83.41
2023-09-23T01:11:20.077Z,83.79
2023-09-23T01:13:51.313Z,84.17
2023-09-23T01:16:19.610Z,83.96
2023-09-23T01:18:50.230Z,84.49
2023-09-23T01:21:19.753Z,84.60
2023-09-23T01:23:49.243Z,83.33
2023-09-23T01:26:17.756Z,83.22
2023-09-23T01:28:46.938Z,83.83
2023-09-23T01:31:15.168Z,84.55
2023-09-23T01:33:43.210Z,84.67
2023-09-23T01:36:12.940Z,84.67
2023-09-23T01:38:42.303Z,85.14
2023-09-23T01:41:11.692Z,85.33
2023-09-23T01:43:39.710Z,85.81
2023-09-23T01:46:08.665Z,86.29
2023-09-23T01:48:37.941Z,86.59
2023-09-23T01:51:07.653Z,86.56
2023-09-23T01:53:35.788Z,86.90
2023-09-23T01:56:03.818Z,86.35
2023-09-23T01:58:34.361Z,85.81
2023-09-23T02:01:05.360Z,85.17
2023-09-23T02:03:35.324Z,84.61
2023-09-23T02:06:03.989Z,84.18
2023-09-23T02:08:31.884Z,83.69
2023-09-23T02:10:59.877Z,84.12
2023-09-23T02:13:29.487Z,85.07
2023-09-23T02:15:59.933Z,86.49
2023-09-23T02:18:28.785Z,86.69
2023-09-23T02:20:57.532Z,87.37
2023-09-23T02:23:25.613Z,87.65
2023-09-23T02:25:54.057Z,88.07
2023-09-23T02:28:21.936Z,89.06
2023-09-23T02:30:49.846Z,89.27
2023-09-23T02:33:19.040Z,88.76
2023-09-23T02:35:46.854Z,88.26
2023-09-23T02:38:14.837Z,88.64
2023-09-23T02:40:44.837Z,87.99
2023-09-23T02:43:13.674Z,88.29
2023-09-23T02:45:41.592Z,88.69
2023-09-23T02:48:09.947Z,89.07
2023-09-23T02:50:39.300Z,89.34
2023-09-23T02:53:07.269Z,88.86
2023-09-23T02:55:35.418Z,88.76
2023-09-23T02:58:03.498Z,88.69
2023-09-23T03:00:34.290Z,89.25
2023-09-23T03:03:07.796Z,89.12
2023-09-23T03:05:40.217Z,89.31
2023-09-23T03:08:15.249Z,89.30
2023-09-23T03:10:46.115Z,89.12
2023-09-23T03:13:14.299Z,88.70
2023-09-23T03:15:46.306Z,89.16
2023-09-23T03:18:16.289Z,89.79
2023-09-23T03:20:44.570Z,89.98
2023-09-23T03:23:13.907Z,89.95
2023-09-23T03:25:46.965Z,90.05
2023-09-23T03:28:17.188Z,90.40
2023-09-23T03:30:48.901Z,90.69
2023-09-23T03:33:19.584Z,90.89
2023-09-23T03:35:47.931Z,91.05
2023-09-23T03:38:17.957Z,90.13
2023-09-23T03:40:52.599Z,90.34
2023-09-23T03:43:20.884Z,89.50
2023-09-23T03:45:49.156Z,89.61
2023-09-23T03:48:17.350Z,88.55
2023-09-23T03:50:45.456Z,88.66
2023-09-23T03:53:13.652Z,88.48
2023-09-23T03:55:43.321Z,89.56
2023-09-23T03:58:12.350Z,90.04
2023-09-23T04:00:40.304Z,89.05
2023-09-23T04:03:08.202Z,88.92
2023-09-23T04:05:36.054Z,88.43
2023-09-23T04:08:04.219Z,88.32
2023-09-23T04:10:32.239Z,88.88
2023-09-23T04:13:01.524Z,89.43
2023-09-23T04:15:29.417Z,90.80
2023-09-23T04:17:57.368Z,90.73
2023-09-23T04:20:25.282Z,90.16
2023-09-23T04:22:53.234Z,90.32
2023-09-23T04:25:22.791Z,89.93
2023-09-23T04:27:52.010Z,89.38
2023-09-23T04:30:21.434Z,89.23
2023-09-23T04:32:49.685Z,88.55
2023-09-23T04:35:18.538Z,88.19
2023-09-23T04:37:46.551Z,87.58
2023-09-23T04:40:16.409Z,87.79
2023-09-23T04:42:45.334Z,88.08
2023-09-23T04:45:13.777Z,88.14
2023-09-23T04:47:46.929Z,88.21
2023-09-23T04:50:16.411Z,89.06
2023-09-23T04:52:44.305Z,89.24
2023-09-23T04:55:12.690Z,89.48
2023-09-23T04:57:40.890Z,89.42
2023-09-23T05:00:11.798Z,89.03
2023-09-23T05:02:41.982Z,88.79
2023-09-23T05:05:13.143Z,88.88
2023-09-23T05:07:41.570Z,89.71
2023-09-23T05:10:10.302Z,89.16
2023-09-23T05:12:38.166Z,88.99
2023-09-23T05:15:07.185Z,88.66
2023-09-23T05:17:35.126Z,88.48
2023-09-23T05:20:11.081Z,88.33
2023-09-23T05:22:41.132Z,89.21
2023-09-23T05:25:12.842Z,88.33
2023-09-23T05:27:40.901Z,88.33
2023-09-23T05:30:11.517Z,87.64
2023-09-23T05:32:39.821Z,88.35
2023-09-23T05:35:10.559Z,87.21
2023-09-23T05:37:40.711Z,87.40
2023-09-23T05:40:20.058Z,88.00
2023-09-23T05:42:48.975Z,87.10
2023-09-23T05:45:17.138Z,87.32
2023-09-23T05:47:45.281Z,87.94
2023-09-23T05:50:13.762Z,88.31
2023-09-23T05:52:43.246Z,87.99
2023-09-23T05:55:11.525Z,87.63
2023-09-23T05:57:40.113Z,87.38
2023-09-23T06:00:09.276Z,86.64
2023-09-23T06:02:37.225Z,86.50
2023-09-23T06:05:05.461Z,86.22
2023-09-23T06:07:33.628Z,85.75
2023-09-23T06:10:04.979Z,86.32
2023-09-23T06:12:33.686Z,86.24
2023-09-23T06:15:02.579Z,85.58
2023-09-23T06:17:30.720Z,86.25
2023-09-23T06:19:59.072Z,85.37
2023-09-23T06:22:27.722Z,85.58
2023-09-23T06:24:56.293Z,84.92
2023-09-23T06:27:25.629Z,83.94
2023-09-23T06:29:54.253Z,83.84
2023-09-23T06:32:22.222Z,83.75
2023-09-23T06:34:50.276Z,83.75
2023-09-23T06:37:18.175Z,84.42
2023-09-23T06:39:46.000Z,83.92
2023-09-23T06:42:14.000Z,82.28
2023-09-23T06:44:43.437Z,82.56
2023-09-23T06:47:11.435Z,82.82
2023-09-23T06:49:39.835Z,83.25
2023-09-23T06:52:07.858Z,82.78
2023-09-23T06:54:35.824Z,81.68
2023-09-23T06:57:03.894Z,82.13
2023-09-23T06:59:32.115Z,80.93
2023-09-23T07:02:01.452Z,80.16
2023-09-23T07:04:30.269Z,81.05
2023-09-23T07:06:58.330Z,81.06
2023-09-23T07:09:26.293Z,80.66
2023-09-23T07:11:54.781Z,79.11
2023-09-23T07:14:22.672Z,78.48
2023-09-23T07:16:50.678Z,77.59
2023-09-23T07:19:20.323Z,76.41
2023-09-23T07:21:48.411Z,77.71
2023-09-23T07:24:16.229Z,78.02
2023-09-23T07:26:44.123Z,79.36
2023-09-23T07:29:12.135Z,79.07
2023-09-23T07:31:40.006Z,78.26
2023-09-23T07:34:07.928Z,77.96
2023-09-23T07:36:37.155Z,78.12
2023-09-23T07:39:05.456Z,76.84
2023-09-23T07:41:33.635Z,77.85
2023-09-23T07:44:01.489Z,76.85
2023-09-23T07:46:29.442Z,74.62
2023-09-23T07:48:57.536Z,72.42
2023-09-23T07:51:25.364Z,67.46
2023-09-23T07:53:54.709Z,65.58
2023-09-23T07:56:22.701Z,66.87
2023-09-23T07:58:50.602Z,67.95
2023-09-23T08:01:19.220Z,69.46
2023-09-23T08:03:47.280Z,69.91
2023-09-23T08:06:15.364Z,69.89
2023-09-23T08:08:43.301Z,70.33
2023-09-23T08:11:12.624Z,70.89
2023-09-23T08:13:40.550Z,70.62
2023-09-23T08:16:08.694Z,70.13
2023-09-23T08:18:36.739Z,70.05
2023-09-23T08:21:06.829Z,68.81
2023-09-23T08:23:34.730Z,66.05
2023-09-23T08:26:02.727Z,60.55
2023-09-23T08:28:31.976Z,59.61
2023-09-23T08:30:59.821Z,59.35
2023-09-23T08:33:29.162Z,58.33
2023-09-23T08:35:57.181Z,59.56
2023-09-23T08:38:25.157Z,59.64
2023-09-23T08:40:55.233Z,60.50
2023-09-23T08:43:37.317Z,59.74
2023-09-23T08:46:07.254Z,57.00
2023-09-23T08:48:36.733Z,56.55
2023-09-23T08:51:05.567Z,58.09
2023-09-23T08:53:35.909Z,57.84
2023-09-23T08:56:03.872Z,59.90
2023-09-23T08:58:31.796Z,61.62
2023-09-23T09:00:59.754Z,62.90
2023-09-23T09:03:29.311Z,63.40
2023-09-23T09:05:57.426Z,61.08
2023-09-23T09:08:25.398Z,61.84
2023-09-23T09:10:53.482Z,61.92
2023-09-23T09:13:21.525Z,63.35
2023-09-23T09:15:49.754Z,63.28
2023-09-23T09:18:18.617Z,62.96
2023-09-23T09:20:48.075Z,61.17
2023-09-23T09:23:18.305Z,60.53
2023-09-23T09:25:48.276Z,61.25
2023-09-23T09:28:18.253Z,60.44
2023-09-23T09:30:46.503Z,60.21
2023-09-23T09:33:18.271Z,61.10
2023-09-23T09:35:49.061Z,60.33
2023-09-23T09:38:20.310Z,60.77
2023-09-23T09:40:50.431Z,61.40
2023-09-23T09:43:19.263Z,60.35
2023-09-23T09:45:47.865Z,60.96
2023-09-23T09:48:16.899Z,61.27
2023-09-23T09:50:47.648Z,61.15
2023-09-23T09:53:18.232Z,60.95
2023-09-23T09:55:47.415Z,61.48
2023-09-23T09:58:15.300Z,60.71
2023-09-23T10:00:44.736Z,60.47
2023-09-23T10:03:14.654Z,61.77
2023-09-23T10:05:45.204Z,60.15
2023-09-23T10:08:16.961Z,59.88
2023-09-23T10:10:49.585Z,59.66
2023-09-23T10:13:19.708Z,61.24
2023-09-23T10:15:48.028Z,61.02
2023-09-23T10:18:18.618Z,61.42
2023-09-23T10:20:50.505Z,60.09
2023-09-23T10:23:21.660Z,61.24
2023-09-23T10:25:52.292Z,60.81
2023-09-23T10:28:22.824Z,61.30
2023-09-23T10:31:04.697Z,60.66
2023-09-23T10:33:34.996Z,59.71
2023-09-23T10:36:04.441Z,59.23
2023-09-23T10:38:38.996Z,60.33
2023-09-23T10:41:07.422Z,59.89
2023-09-23T10:43:35.392Z,59.89
2023-09-23T10:46:04.036Z,58.49
2023-09-23T10:48:32.660Z,58.82
2023-09-23T10:51:01.710Z,58.66
2023-09-23T10:53:30.100Z,58.36
2023-09-23T10:56:03.227Z,57.85
2023-09-23T10:58:32.672Z,57.61
2023-09-23T11:01:00.746Z,56.85
2023-09-23T11:03:29.577Z,57.54
2023-09-23T11:05:57.820Z,58.51
2023-09-23T11:08:25.838Z,58.57
2023-09-23T11:10:54.101Z,58.35
2023-09-23T11:13:23.532Z,58.69
2023-09-23T11:15:51.616Z,56.98
2023-09-23T11:18:20.153Z,57.56
2023-09-23T11:20:49.234Z,58.14
2023-09-23T11:23:17.514Z,57.50
2023-09-23T11:25:48.408Z,56.07
2023-09-23T11:28:21.036Z,56.69
2023-09-23T11:30:51.900Z,55.79
2023-09-23T11:33:20.240Z,55.76
2023-09-23T11:35:48.306Z,55.41
2023-09-23T11:38:18.349Z,55.13
2023-09-23T11:40:46.653Z,55.44
2023-09-23T11:43:14.600Z,55.68
2023-09-23T11:45:43.487Z,55.41
2023-09-23T11:48:13.385Z,54.25
2023-09-23T11:50:42.121Z,54.39
2023-09-23T11:53:12.202Z,53.56
2023-09-23T11:55:41.014Z,53.81
2023-09-23T11:58:09.336Z,54.50
2023-09-23T12:00:38.104Z,55.12
2023-09-23T12:03:07.023Z,55.76
2023-09-23T12:05:36.341Z,55.62
2023-09-23T12:08:05.402Z,56.49
2023-09-23T12:10:33.531Z,56.92
2023-09-23T12:13:06.623Z,56.37
2023-09-23T12:15:35.355Z,55.97
2023-09-23T12:18:03.751Z,55.96
2023-09-23T12:20:33.533Z,56.26
2023-09-23T12:23:03.142Z,56.77
2023-09-23T12:25:31.478Z,56.04
2023-09-23T12:27:59.592Z,56.14
2023-09-23T12:30:27.924Z,55.56
2023-09-23T12:32:55.966Z,55.27
2023-09-23T12:35:23.944Z,55.35
2023-09-23T12:37:51.836Z,55.91
2023-09-23T12:40:21.123Z,56.42
2023-09-23T12:42:49.086Z,56.12
2023-09-23T12:45:17.834Z,56.55
2023-09-23T12:47:56.921Z,56.51
2023-09-23T12:50:26.553Z,56.58
2023-09-23T12:52:54.754Z,56.00
2023-09-23T12:55:24.585Z,56.16
2023-09-23T12:57:54.120Z,56.82
2023-09-23T13:00:22.526Z,56.20
2023-09-23T13:02:51.062Z,57.28
2023-09-23T13:05:19.273Z,57.57
2023-09-23T13:07:47.533Z,58.61
2023-09-23T13:10:15.445Z,58.97
2023-09-23T13:12:45.612Z,58.61
2023-09-23T13:15:15.067Z,58.29
2023-09-23T13:17:43.276Z,58.47
2023-09-23T13:20:12.748Z,58.64
2023-09-23T13:22:40.739Z,58.98
2023-09-23T13:25:09.552Z,58.92
2023-09-23T13:27:37.548Z,58.36
2023-09-23T13:30:10.683Z,57.74
2023-09-23T13:32:40.447Z,57.42
2023-09-23T13:35:10.820Z,56.36
2023-09-23T13:37:39.112Z,56.32
2023-09-23T13:40:08.329Z,55.67
2023-09-23T13:42:36.171Z,56.87
2023-09-23T13:45:05.976Z,56.61
2023-09-23T13:47:36.083Z,56.96
2023-09-23T13:50:04.291Z,56.85
2023-09-23T13:52:32.244Z,57.00
2023-09-23T13:55:00.181Z,56.81
2023-09-23T13:57:28.073Z,57.19
2023-09-23T13:59:55.986Z,58.09
2023-09-23T14:02:24.476Z,58.59
2023-09-23T14:04:53.895Z,58.89
2023-09-23T14:07:21.768Z,58.76
2023-09-23T14:09:50.619Z,58.77
2023-09-23T14:12:18.571Z,59.95
2023-09-23T14:14:46.479Z,59.12
2023-09-23T14:17:14.478Z,58.95
2023-09-23T14:19:42.362Z,58.14
2023-09-23T14:22:11.652Z,58.18
2023-09-23T14:24:39.822Z,58.20
2023-09-23T14:27:07.758Z,57.11
2023-09-23T14:29:35.914Z,57.60
2023-09-23T14:32:05.114Z,57.80
2023-09-23T14:34:33.089Z,57.82
2023-09-23T14:37:00.991Z,57.65
2023-09-23T14:39:32.957Z,57.72
2023-09-23T14:42:00.868Z,57.32
2023-09-23T14:44:28.811Z,57.62
2023-09-23T14:46:56.795Z,57.88
2023-09-23T14:49:24.725Z,56.93
2023-09-23T14:51:52.781Z,56.96
2023-09-23T14:54:20.680Z,56.55
2023-09-23T14:56:49.951Z,56.64
2023-09-23T14:59:17.894Z,56.16
2023-09-23T15:01:47.498Z,57.11
2023-09-23T15:04:15.560Z,57.34
2023-09-23T15:06:43.813Z,57.83
2023-09-23T15:09:13.645Z,58.39
2023-09-23T15:11:41.769Z,58.34
2023-09-23T15:14:11.330Z,57.45
2023-09-23T15:16:39.303Z,57.64
2023-09-23T15:19:07.586Z,57.50
2023-09-23T15:21:35.498Z,58.39
2023-09-23T15:24:03.534Z,58.25
2023-09-23T15:26:31.434Z,59.25
2023-09-23T15:28:59.692Z,60.13
2023-09-23T15:31:28.969Z,60.80
2023-09-23T15:33:57.735Z,61.08
2023-09-23T15:36:25.704Z,61.14
2023-09-23T15:38:55.174Z,61.44
2023-09-23T15:41:23.123Z,61.51
2023-09-23T15:43:52.226Z,61.58
2023-09-23T15:46:20.399Z,61.52
2023-09-23T15:48:50.183Z,61.23
2023-09-23T15:51:20.877Z,61.93
2023-09-23T15:53:48.935Z,62.02
2023-09-23T15:56:16.977Z,61.83
2023-09-23T15:58:46.181Z,62.96
2023-09-23T16:01:15.201Z,64.10
2023-09-23T16:03:43.212Z,66.66
2023-09-23T16:06:12.647Z,67.27
2023-09-23T16:08:40.580Z,68.22
2023-09-23T16:11:09.286Z,68.89
2023-09-23T16:13:37.249Z,69.22
2023-09-23T16:16:05.335Z,69.18
2023-09-23T16:18:33.542Z,69.58
2023-09-23T16:21:01.476Z,69.26
2023-09-23T16:23:31.121Z,70.06
2023-09-23T16:25:58.993Z,70.99
2023-09-23T16:28:26.931Z,71.28
2023-09-23T16:30:54.809Z,71.97
2023-09-23T16:33:22.857Z,72.48
2023-09-23T16:35:51.269Z,72.24
2023-09-23T16:38:20.122Z,73.44
2023-09-23T16:40:49.417Z,74.20
2023-09-23T16:43:17.359Z,73.28
2023-09-23T16:45:46.643Z,72.74
2023-09-23T16:48:15.063Z,72.54
2023-09-23T16:50:43.798Z,73.42
2023-09-23T16:53:12.133Z,73.17
2023-09-23T16:55:40.225Z,72.69
2023-09-23T16:58:09.508Z,73.54
2023-09-23T17:00:37.456Z,73.15
2023-09-23T17:03:05.708Z,73.25
2023-09-23T17:05:33.860Z,73.34
2023-09-23T17:08:02.035Z,73.66
2023-09-23T17:10:30.222Z,74.07
2023-09-23T17:12:58.292Z,74.29
2023-09-23T17:15:27.821Z,74.34
2023-09-23T17:17:55.778Z,74.96
2023-09-23T17:20:24.779Z,74.64
2023-09-23T17:22:54.101Z,75.63
2023-09-23T17:25:22.002Z,75.22
2023-09-23T17:27:50.038Z,74.88
2023-09-23T17:30:18.103Z,74.79
2023-09-23T17:32:47.600Z,74.68
2023-09-23T17:35:16.921Z,74.96
2023-09-23T17:37:44.878Z,75.38
2023-09-23T17:40:12.871Z,75.47
2023-09-23T17:42:40.874Z,75.22
2023-09-23T17:45:09.737Z,75.23
2023-09-23T17:47:37.702Z,75.56
2023-09-23T17:50:08.927Z,75.82
2023-09-23T17:52:36.814Z,76.07
2023-09-23T17:55:05.122Z,76.46
2023-09-23T17:57:33.232Z,76.59
2023-09-23T18:00:01.232Z,77.12
2023-09-23T18:02:29.345Z,77.40
2023-09-23T18:04:57.369Z,77.85
2023-09-23T18:07:26.672Z,77.54
2023-09-23T18:09:54.839Z,78.15
2023-09-23T18:12:23.168Z,78.64
2023-09-23T18:14:51.396Z,78.77
2023-09-23T18:17:19.501Z,78.28
2023-09-23T18:19:47.626Z,78.82
2023-09-23T18:22:15.495Z,78.66
2023-09-23T18:24:44.846Z,78.63
2023-09-23T18:27:12.891Z,79.24
2023-09-23T18:29:40.863Z,79.52
2023-09-23T18:32:14.449Z,79.53
2023-09-23T18:34:42.699Z,80.36
2023-09-23T18:37:10.838Z,81.09
2023-09-23T18:39:39.106Z,81.32
2023-09-23T18:42:08.444Z,81.06
2023-09-23T18:44:36.717Z,81.87
2023-09-23T18:47:05.506Z,81.87
2023-09-23T18:49:33.464Z,82.01
2023-09-23T18:52:03.826Z,82.15
2023-09-23T18:54:33.011Z,82.62
2023-09-23T18:57:00.908Z,82.77
2023-09-23T18:59:30.502Z,82.76
2023-09-23T19:01:58.549Z,83.23
2023-09-23T19:04:27.250Z,83.16
2023-09-23T19:06:55.818Z,83.49
2023-09-23T19:09:23.864Z,83.67
2023-09-23T19:11:51.801Z,83.70
2023-09-23T19:14:20.015Z,84.05
2023-09-23T19:16:49.662Z,83.44
2023-09-23T19:19:18.549Z,84.44
2023-09-23T19:21:46.449Z,83.90
2023-09-23T19:24:14.401Z,84.54
2023-09-23T19:26:55.706Z,84.76
2023-09-23T19:29:25.691Z,84.80
2023-09-23T19:31:56.843Z,85.06
2023-09-23T19:34:27.609Z,85.77
2023-09-23T19:36:56.919Z,85.62
2023-09-23T19:39:26.707Z,86.47
2023-09-23T19:41:55.093Z,86.28
2023-09-23T19:44:23.240Z,86.52
2023-09-23T19:46:51.336Z,87.00
2023-09-23T19:49:20.812Z,86.47
2023-09-23T19:51:49.022Z,86.99
2023-09-23T19:54:17.002Z,87.27
2023-09-23T19:56:45.779Z,86.77
2023-09-23T19:59:13.990Z,86.48
2023-09-23T20:01:42.610Z,86.36
2023-09-23T20:04:11.886Z,86.79
2023-09-23T20:06:42.464Z,86.60
2023-09-23T20:09:10.962Z,86.27
2023-09-23T20:11:39.262Z,85.91
2023-09-23T20:14:07.343Z,85.55
2023-09-23T20:16:35.315Z,86.11
2023-09-23T20:19:03.340Z,86.50
2023-09-23T20:21:31.587Z,86.49
2023-09-23T20:24:00.875Z,86.24
2023-09-23T20:26:28.888Z,86.31
2023-09-23T20:28:56.826Z,86.61
2023-09-23T20:31:26.205Z,86.40
2023-09-23T20:33:55.023Z,86.35
2023-09-23T20:36:23.495Z,86.35
2023-09-23T20:38:53.230Z,86.73
2023-09-23T20:41:22.962Z,86.95
2023-09-23T20:43:51.205Z,86.81
2023-09-23T20:46:19.324Z,87.02
2023-09-23T20:48:47.334Z,86.79
2023-09-23T20:51:15.500Z,87.25
2023-09-23T20:53:43.453Z,87.44
2023-09-23T20:56:12.290Z,88.13
2023-09-23T20:58:41.657Z,87.51
2023-09-23T21:01:09.563Z,88.16
2023-09-23T21:03:37.655Z,88.12
2023-09-23T21:06:07.033Z,88.04
2023-09-23T21:08:34.972Z,88.69
2023-09-23T21:11:02.936Z,88.72
2023-09-23T21:13:30.801Z,89.03
2023-09-23T21:16:01.270Z,89.00
2023-09-23T21:18:29.441Z,89.16
2023-09-23T21:20:57.425Z,89.78
2023-09-23T21:23:25.457Z,89.51
2023-09-23T21:25:53.756Z,89.25
2023-09-23T21:28:21.747Z,90.03
2023-09-23T21:30:49.908Z,89.84
2023-09-23T21:33:19.355Z,89.53
2023-09-23T21:35:47.617Z,89.96
2023-09-23T21:38:15.567Z,90.22
2023-09-23T21:40:44.153Z,90.28
2023-09-23T21:43:12.076Z,90.42
2023-09-23T21:45:40.655Z,90.65
2023-09-23T21:48:09.967Z,90.67
2023-09-23T21:50:39.469Z,90.73
2023-09-23T21:53:07.759Z,91.26
2023-09-23T21:55:36.052Z,90.44
2023-09-23T21:58:04.172Z,90.51
2023-09-23T22:00:34.972Z,90.29
2023-09-23T22:03:04.585Z,90.76
2023-09-23T22:05:32.790Z,91.28
2023-09-23T22:08:03.118Z,91.04
2023-09-23T22:10:31.250Z,90.96
2023-09-23T22:13:00.240Z,91.40
2023-09-23T22:15:29.522Z,91.41
2023-09-23T22:17:59.164Z,91.29
2023-09-23T22:20:29.313Z,91.48
2023-09-23T22:22:57.790Z,92.39
2023-09-23T22:25:27.248Z,91.01
2023-09-23T22:27:55.858Z,91.38
2023-09-23T22:30:26.916Z,90.66
2023-09-23T22:32:56.652Z,90.79
2023-09-23T22:35:26.169Z,91.23
2023-09-23T22:37:54.219Z,90.81
2023-09-23T22:40:23.482Z,91.50
2023-09-23T22:42:52.777Z,91.37
2023-09-23T22:45:36.114Z,90.60
2023-09-23T22:48:07.615Z,90.32
2023-09-23T22:50:36.016Z,90.36
2023-09-23T22:53:06.132Z,89.63
2023-09-23T22:55:34.929Z,90.21
2023-09-23T22:58:04.556Z,90.42
2023-09-23T23:00:36.084Z,90.24
2023-09-23T23:03:07.425Z,89.96
2023-09-23T23:05:35.962Z,90.20
2023-09-23T23:08:05.999Z,90.20
2023-09-23T23:10:33.856Z,90.26
2023-09-23T23:13:01.863Z,90.56
2023-09-23T23:15:31.193Z,90.75
2023-09-23T23:18:00.148Z,90.29
2023-09-23T23:20:29.273Z,90.04
2023-09-23T23:22:57.647Z,90.54
2023-09-23T23:25:25.981Z,90.80
2023-09-23T23:27:53.968Z,91.02
2023-09-23T23:30:22.250Z,91.23
2023-09-23T23:32:53.067Z,91.39
2023-09-23T23:35:23.543Z,91.33
2023-09-23T23:37:52.570Z,91.01
2023-09-23T23:40:22.664Z,90.73
2023-09-23T23:42:50.953Z,90.69
2023-09-23T23:45:21.365Z,90.65
2023-09-23T23:47:49.463Z,91.01
2023-09-23T23:50:21.540Z,91.50
2023-09-23T23:52:50.187Z,91.29
2023-09-23T23:55:18.869Z,91.47
2023-09-23T23:57:46.786Z,92.09
